Time;durP1;ratioP1;P1;durP2;ratioP2;P2;SDS_P1;SDS_P2;PMS_P1;PMS_P2;Temp;Humidity;BMP_temperature;BMP_pressure;BME280_temperature;BME280_humidity;BME280_pressure;Samples;Min_cycle;Max_cycle;Signal;HPM_P1;HPM_P2
2023/12/21 00:01:31;;;;;;;14.43;4.50;;;;;;;;;;4972580;28;20058;-65
2023/12/21 00:03:57;;;;;;;14.73;4.78;;;;;;;;;;4978574;28;20050;-65
2023/12/21 00:06:24;;;;;;;13.65;3.60;;;;;;;;;;4966948;28;20078;-66
2023/12/21 00:08:50;;;;;;;14.93;4.88;;;;;;;;;;4975645;28;20266;-65
2023/12/21 00:11:17;;;;;;;18.20;4.85;;;;;;;;;;4971040;28;20437;-65
2023/12/21 00:13:44;;;;;;;16.88;4.47;;;;;;;;;;4967773;28;20163;-65
2023/12/21 00:16:10;;;;;;;14.55;4.45;;;;;;;;;;4978372;28;20046;-66
2023/12/21 00:18:36;;;;;;;20.55;4.63;;;;;;;;;;4974394;28;20065;-66
2023/12/21 00:21:03;;;;;;;17.20;4.07;;;;;;;;;;4968652;28;20132;-65
2023/12/21 00:23:29;;;;;;;13.88;4.05;;;;;;;;;;4967818;28;20058;-65
2023/12/21 00:25:56;;;;;;;19.17;4.13;;;;;;;;;;4961026;28;20058;-66
2023/12/21 00:28:23;;;;;;;18.27;4.10;;;;;;;;;;4972243;28;20050;-67
2023/12/21 00:30:49;;;;;;;17.02;4.00;;;;;;;;;;4959434;28;20118;-67
2023/12/21 00:33:16;;;;;;;19.58;3.75;;;;;;;;;;4965706;28;20138;-66
2023/12/21 00:35:42;;;;;;;12.52;3.70;;;;;;;;;;4960563;28;20487;-67
2023/12/21 00:38:09;;;;;;;19.08;4.97;;;;;;;;;;4967983;28;20054;-65
2023/12/21 00:40:35;;;;;;;14.65;3.75;;;;;;;;;;4957059;28;20137;-66
2023/12/21 00:43:01;;;;;;;15.68;4.18;;;;;;;;;;4965576;28;20054;-66
2023/12/21 00:45:28;;;;;;;15.80;4.18;;;;;;;;;;4965948;28;20057;-66
2023/12/21 00:47:55;;;;;;;12.95;3.88;;;;;;;;;;4971759;28;20407;-67
2023/12/21 00:50:21;;;;;;;11.82;3.75;;;;;;;;;;4971117;28;20128;-65
2023/12/21 00:52:48;;;;;;;17.67;4.10;;;;;;;;;;4978488;28;20050;-66
2023/12/21 00:55:14;;;;;;;19.90;3.92;;;;;;;;;;4970855;28;20271;-66
2023/12/21 00:57:41;;;;;;;11.18;4.32;;;;;;;;;;4979025;28;20424;-66
2023/12/21 01:00:07;;;;;;;12.38;4.07;;;;;;;;;;4964294;28;20213;-66
2023/12/21 01:02:35;;;;;;;12.35;3.95;;;;;;;;;;4983998;28;20093;-65
2023/12/21 01:05:01;;;;;;;12.90;4.40;;;;;;;;;;4973110;28;20133;-65
2023/12/21 01:07:27;;;;;;;16.27;4.50;;;;;;;;;;4970481;28;20395;-66
2023/12/21 01:09:54;;;;;;;13.05;4.50;;;;;;;;;;4958674;28;20553;-66
2023/12/21 01:12:20;;;;;;;15.07;5.05;;;;;;;;;;4973835;28;20086;-65
2023/12/21 01:14:47;;;;;;;13.65;4.47;;;;;;;;;;4968889;28;20453;-66
2023/12/21 01:17:13;;;;;;;13.13;4.93;;;;;;;;;;4973115;28;20058;-65
2023/12/21 01:19:39;;;;;;;13.13;4.82;;;;;;;;;;4981822;28;20494;-65
2023/12/21 01:22:06;;;;;;;17.25;4.70;;;;;;;;;;4959225;28;20795;-67
2023/12/21 01:24:32;;;;;;;14.20;5.25;;;;;;;;;;4968525;28;20427;-67
2023/12/21 01:26:59;;;;;;;14.52;4.80;;;;;;;;;;4976000;28;20047;-66
2023/12/21 01:29:25;;;;;;;13.60;4.60;;;;;;;;;;4975708;28;20046;-67
2023/12/21 01:31:52;;;;;;;13.68;4.72;;;;;;;;;;4980831;28;20054;-65
2023/12/21 01:34:19;;;;;;;19.38;4.97;;;;;;;;;;4964349;28;20054;-68
2023/12/21 01:36:45;;;;;;;22.42;5.32;;;;;;;;;;4964651;28;20043;-66
2023/12/21 01:39:12;;;;;;;18.60;4.85;;;;;;;;;;4961839;28;20521;-66
2023/12/21 01:41:38;;;;;;;16.25;5.00;;;;;;;;;;4980516;28;20045;-66
2023/12/21 01:44:04;;;;;;;11.73;4.70;;;;;;;;;;4977889;28;20045;-66
2023/12/21 01:46:31;;;;;;;14.45;4.57;;;;;;;;;;4975222;28;20108;-66
2023/12/21 01:48:58;;;;;;;16.25;4.70;;;;;;;;;;4971513;28;20065;-66
2023/12/21 01:51:24;;;;;;;16.30;4.43;;;;;;;;;;4957843;28;20461;-65
2023/12/21 01:53:51;;;;;;;18.05;3.88;;;;;;;;;;4981743;28;20061;-65
2023/12/21 01:56:20;;;;;;;14.15;3.95;;;;;;;;;;4982571;28;20085;-66
2023/12/21 01:58:49;;;;;;;19.02;4.07;;;;;;;;;;4976169;28;20157;-65
2023/12/21 02:01:19;;;;;;;16.73;3.60;;;;;;;;;;4979197;28;20042;-65
2023/12/21 02:03:46;;;;;;;12.70;3.65;;;;;;;;;;4958001;28;20046;-65
2023/12/21 02:06:12;;;;;;;14.10;3.67;;;;;;;;;;4962352;28;20965;-66
2023/12/21 02:08:39;;;;;;;14.18;3.47;;;;;;;;;;4962845;28;20482;-65
2023/12/21 02:11:09;;;;;;;12.15;3.42;;;;;;;;;;4973740;28;20058;-66
2023/12/21 02:13:35;;;;;;;10.40;3.47;;;;;;;;;;4963476;28;20545;-65
2023/12/21 02:16:05;;;;;;;11.10;3.25;;;;;;;;;;4967194;28;20054;-65
2023/12/21 02:18:31;;;;;;;12.23;3.42;;;;;;;;;;4975293;28;20051;-65
2023/12/21 02:20:58;;;;;;;10.55;3.25;;;;;;;;;;4975775;28;20056;-65
2023/12/21 02:23:26;;;;;;;15.95;3.40;;;;;;;;;;4971008;28;20046;-65
2023/12/21 02:25:53;;;;;;;18.25;3.38;;;;;;;;;;4971303;28;20054;-66
2023/12/21 02:28:19;;;;;;;15.55;3.92;;;;;;;;;;4965052;28;20137;-65
2023/12/21 02:30:47;;;;;;;12.98;3.20;;;;;;;;;;4969302;28;20105;-65
2023/12/21 02:33:14;;;;;;;9.18;2.65;;;;;;;;;;4972989;28;20054;-65
2023/12/21 02:35:40;;;;;;;13.07;2.55;;;;;;;;;;4981320;28;20058;-66
2023/12/21 02:38:07;;;;;;;13.13;3.00;;;;;;;;;;4962324;28;20133;-65
2023/12/21 02:40:33;;;;;;;12.57;3.10;;;;;;;;;;4976202;28;20167;-65
2023/12/21 02:43:00;;;;;;;16.15;3.53;;;;;;;;;;4967093;28;20403;-66
2023/12/21 02:45:26;;;;;;;18.60;3.97;;;;;;;;;;4978479;28;20413;-65
2023/12/21 02:47:53;;;;;;;15.90;3.92;;;;;;;;;;4973177;28;20453;-66
2023/12/21 02:50:19;;;;;;;18.30;4.57;;;;;;;;;;4978570;28;20050;-66
2023/12/21 02:52:45;;;;;;;17.90;4.60;;;;;;;;;;4979582;28;20050;-67
2023/12/21 02:55:12;;;;;;;15.95;3.83;;;;;;;;;;4971496;28;20375;-66
2023/12/21 02:57:39;;;;;;;17.35;4.05;;;;;;;;;;4978806;28;20046;-65
2023/12/21 03:00:05;;;;;;;13.00;4.43;;;;;;;;;;4974896;28;20536;-66
2023/12/21 03:02:32;;;;;;;14.27;3.92;;;;;;;;;;4975783;28;20137;-66
2023/12/21 03:04:58;;;;;;;15.27;3.65;;;;;;;;;;4985537;28;20271;-66
2023/12/21 03:07:25;;;;;;;15.05;4.15;;;;;;;;;;4973101;28;20108;-65
2023/12/21 03:09:51;;;;;;;18.42;3.30;;;;;;;;;;4974825;28;20272;-67
2023/12/21 03:12:17;;;;;;;14.80;3.97;;;;;;;;;;4976785;28;20050;-66
2023/12/21 03:14:44;;;;;;;15.20;3.60;;;;;;;;;;4966660;28;20057;-66
2023/12/21 03:17:10;;;;;;;12.45;3.45;;;;;;;;;;4972040;28;20421;-66
2023/12/21 03:19:37;;;;;;;14.55;3.70;;;;;;;;;;4976665;28;20072;-66
2023/12/21 03:22:03;;;;;;;12.10;3.42;;;;;;;;;;4984347;28;20057;-66
2023/12/21 03:24:31;;;;;;;15.15;3.60;;;;;;;;;;4968308;28;20097;-65
2023/12/21 03:26:57;;;;;;;18.35;4.00;;;;;;;;;;4973091;28;20084;-65
2023/12/21 03:29:24;;;;;;;15.63;4.60;;;;;;;;;;4969120;28;20290;-66
2023/12/21 03:31:52;;;;;;;14.65;3.80;;;;;;;;;;4971703;28;20057;-65
2023/12/21 03:34:19;;;;;;;;;;;;;;;;;;4982471;28;20409;-66
2023/12/21 03:36:46;;;;;;;11.82;3.30;;;;;;;;;;4966267;28;19926;-66
2023/12/21 03:39:12;;;;;;;16.23;4.28;;;;;;;;;;4976158;28;20057;-66
2023/12/21 03:41:38;;;;;;;16.30;3.60;;;;;;;;;;4972484;28;20042;-67
2023/12/21 03:44:05;;;;;;;16.33;4.53;;;;;;;;;;4973667;28;20046;-65
2023/12/21 03:46:31;;;;;;;17.30;4.07;;;;;;;;;;4977407;28;20616;-65
2023/12/21 03:48:58;;;;;;;14.73;4.00;;;;;;;;;;4972744;28;20085;-65
2023/12/21 03:51:24;;;;;;;17.20;3.92;;;;;;;;;;4975070;28;20051;-67
2023/12/21 03:53:51;;;;;;;14.13;4.35;;;;;;;;;;4957858;28;20073;-65
2023/12/21 03:56:17;;;;;;;16.73;3.90;;;;;;;;;;4979928;28;20050;-65
2023/12/21 03:58:43;;;;;;;18.25;4.05;;;;;;;;;;4975491;28;20046;-66
2023/12/21 04:01:10;;;;;;;17.27;4.22;;;;;;;;;;4969262;28;20501;-66
2023/12/21 04:03:36;;;;;;;24.50;3.83;;;;;;;;;;4977760;28;20115;-66
2023/12/21 04:06:03;;;;;;;13.82;3.58;;;;;;;;;;4967375;28;20058;-65
2023/12/21 04:08:29;;;;;;;18.73;4.13;;;;;;;;;;4979815;28;20125;-65
2023/12/21 04:10:56;;;;;;;16.83;3.95;;;;;;;;;;4969480;28;20051;-65
2023/12/21 04:13:22;;;;;;;19.60;4.28;;;;;;;;;;4958818;28;20051;-66
2023/12/21 04:15:51;;;;;;;16.20;4.10;;;;;;;;;;4976659;28;20097;-65
2023/12/21 04:18:17;;;;;;;14.40;3.60;;;;;;;;;;4972789;28;20054;-66
2023/12/21 04:20:44;;;;;;;12.15;3.08;;;;;;;;;;4967916;28;20125;-66
2023/12/21 04:23:10;;;;;;;13.90;4.30;;;;;;;;;;4959131;28;20074;-65
2023/12/21 04:25:37;;;;;;;15.95;4.47;;;;;;;;;;4973552;28;20066;-65
2023/12/21 04:28:04;;;;;;;19.25;4.47;;;;;;;;;;4981389;28;20207;-65
2023/12/21 04:30:30;;;;;;;17.52;5.45;;;;;;;;;;4969872;28;20054;-65
2023/12/21 04:32:56;;;;;;;20.63;5.15;;;;;;;;;;4973732;28;20133;-65
2023/12/21 04:35:25;;;;;;;23.20;4.57;;;;;;;;;;4963840;28;20050;-64
2023/12/21 04:37:52;;;;;;;21.63;4.85;;;;;;;;;;4967142;28;20047;-65
2023/12/21 04:40:18;;;;;;;10.90;4.00;;;;;;;;;;4975265;28;20054;-65
2023/12/21 04:42:51;;;;;;;21.35;4.47;;;;;;;;;;4965599;28;20039;-65
2023/12/21 04:45:18;;;;;;;22.88;4.35;;;;;;;;;;4987162;28;20101;-66
2023/12/21 04:47:44;;;;;;;17.55;4.15;;;;;;;;;;4960488;28;20053;-65
2023/12/21 04:50:11;;;;;;;10.93;3.25;;;;;;;;;;4975201;28;20046;-66
2023/12/21 04:52:37;;;;;;;11.95;3.78;;;;;;;;;;4975873;28;20056;-65
2023/12/21 04:55:04;;;;;;;15.02;4.13;;;;;;;;;;4975809;28;20053;-65
2023/12/21 04:57:31;;;;;;;14.38;3.22;;;;;;;;;;4980876;28;20046;-65
2023/12/21 04:59:57;;;;;;;14.98;3.13;;;;;;;;;;4968035;28;20085;-65
2023/12/21 05:02:23;;;;;;;16.02;3.80;;;;;;;;;;4972404;28;20342;-66
2023/12/21 05:04:50;;;;;;;23.25;4.03;;;;;;;;;;4971170;28;20062;-65
2023/12/21 05:07:18;;;;;;;18.40;3.72;;;;;;;;;;4975974;28;20049;-65
2023/12/21 05:09:44;;;;;;;16.17;3.63;;;;;;;;;;4973377;28;20043;-65
2023/12/21 05:12:11;;;;;;;14.52;2.70;;;;;;;;;;4968840;28;20042;-65
2023/12/21 05:14:37;;;;;;;11.98;3.17;;;;;;;;;;4979238;28;20043;-65
2023/12/21 05:17:03;;;;;;;14.57;3.00;;;;;;;;;;4956398;28;20050;-65
2023/12/21 05:19:34;;;;;;;20.70;3.75;;;;;;;;;;4970188;28;20047;-65
2023/12/21 05:22:00;;;;;;;14.88;3.67;;;;;;;;;;4961756;28;20050;-65
2023/12/21 05:24:27;;;;;;;18.20;3.30;;;;;;;;;;4977624;28;20065;-65
2023/12/21 05:26:53;;;;;;;16.35;2.95;;;;;;;;;;4974727;28;20042;-65
2023/12/21 05:29:20;;;;;;;14.57;3.55;;;;;;;;;;4967500;28;20054;-65
2023/12/21 05:31:46;;;;;;;10.98;2.95;;;;;;;;;;4960175;28;20142;-67
2023/12/21 05:34:13;;;;;;;17.92;3.83;;;;;;;;;;4958086;28;20093;-65
2023/12/21 05:36:39;;;;;;;20.45;3.72;;;;;;;;;;4979659;28;20133;-66
2023/12/21 05:39:08;;;;;;;18.00;3.63;;;;;;;;;;4964386;28;20071;-66
2023/12/21 05:41:43;;;;;;;14.35;3.65;;;;;;;;;;4983703;28;20051;-66
2023/12/21 05:44:10;;;;;;;12.95;3.30;;;;;;;;;;4977042;28;20130;-65
2023/12/21 05:46:36;;;;;;;13.23;3.10;;;;;;;;;;4965353;28;20430;-66
2023/12/21 05:49:03;;;;;;;16.20;3.35;;;;;;;;;;4974015;28;20613;-65
2023/12/21 05:51:31;;;;;;;12.60;3.65;;;;;;;;;;4958080;28;20070;-66
2023/12/21 05:53:57;;;;;;;13.07;3.05;;;;;;;;;;4965669;28;20054;-65
2023/12/21 05:56:23;;;;;;;13.82;3.00;;;;;;;;;;4966671;28;20050;-66
2023/12/21 05:58:50;;;;;;;11.20;2.65;;;;;;;;;;4972574;28;20149;-65
2023/12/21 06:01:17;;;;;;;11.60;3.00;;;;;;;;;;4973638;28;20509;-65
2023/12/21 06:03:43;;;;;;;8.40;3.20;;;;;;;;;;4974176;28;20097;-65
2023/12/21 06:06:11;;;;;;;11.20;3.15;;;;;;;;;;4975641;28;20065;-66
2023/12/21 06:08:37;;;;;;;8.68;2.47;;;;;;;;;;4967270;28;20054;-65
2023/12/21 06:11:05;;;;;;;15.43;4.20;;;;;;;;;;4969606;28;20153;-66
2023/12/21 06:13:33;;;;;;;10.63;2.63;;;;;;;;;;4978292;28;20417;-65
2023/12/21 06:16:00;;;;;;;13.88;3.38;;;;;;;;;;4977423;28;20669;-66
2023/12/21 06:18:26;;;;;;;14.48;2.78;;;;;;;;;;4971279;28;20058;-66
2023/12/21 06:20:53;;;;;;;11.30;3.00;;;;;;;;;;4981641;28;20054;-66
2023/12/21 06:23:19;;;;;;;12.40;3.40;;;;;;;;;;4973231;28;20047;-66
2023/12/21 06:25:46;;;;;;;14.90;4.07;;;;;;;;;;4970947;28;20086;-66
2023/12/21 06:28:12;;;;;;;12.70;2.85;;;;;;;;;;4981296;28;20046;-66
2023/12/21 06:30:39;;;;;;;14.80;3.72;;;;;;;;;;4985408;28;20042;-66
2023/12/21 06:33:06;;;;;;;14.30;3.65;;;;;;;;;;4976819;28;20042;-66
2023/12/21 06:35:33;;;;;;;13.18;3.47;;;;;;;;;;4976885;28;20051;-65
2023/12/21 06:37:59;;;;;;;13.82;2.63;;;;;;;;;;4975599;28;20070;-65
2023/12/21 06:40:26;;;;;;;11.85;2.83;;;;;;;;;;4974707;28;20054;-67
2023/12/21 06:42:52;;;;;;;9.13;3.10;;;;;;;;;;4971283;28;20054;-65
2023/12/21 06:45:19;;;;;;;10.20;2.78;;;;;;;;;;4980176;28;20518;-66
2023/12/21 06:47:45;;;;;;;12.55;3.13;;;;;;;;;;4982767;28;20177;-69
2023/12/21 06:50:12;;;;;;;10.38;2.55;;;;;;;;;;4974112;28;20053;-66
2023/12/21 06:52:38;;;;;;;12.45;3.55;;;;;;;;;;4986858;28;20121;-65
2023/12/21 06:55:05;;;;;;;7.82;2.40;;;;;;;;;;4963744;28;20070;-65
2023/12/21 06:57:32;;;;;;;8.85;2.72;;;;;;;;;;4977954;28;20053;-66
2023/12/21 06:59:58;;;;;;;9.23;2.38;;;;;;;;;;4975655;28;20057;-66
2023/12/21 07:02:25;;;;;;;13.57;2.97;;;;;;;;;;4961629;28;20142;-65
2023/12/21 07:04:51;;;;;;;11.48;2.42;;;;;;;;;;4979432;28;20546;-65
2023/12/21 07:07:17;;;;;;;10.32;2.80;;;;;;;;;;4960289;28;20047;-65
2023/12/21 07:09:44;;;;;;;10.82;3.22;;;;;;;;;;4981930;28;20051;-65
2023/12/21 07:12:10;;;;;;;10.55;3.00;;;;;;;;;;4978232;28;20054;-65
2023/12/21 07:14:40;;;;;;;9.40;2.80;;;;;;;;;;4970329;28;20051;-65
2023/12/21 07:17:07;;;;;;;8.82;2.70;;;;;;;;;;4966860;28;20074;-65
2023/12/21 07:19:34;;;;;;;15.48;3.35;;;;;;;;;;4966589;28;20043;-64
2023/12/21 07:22:00;;;;;;;14.88;3.65;;;;;;;;;;4973849;28;20050;-66
2023/12/21 07:24:26;;;;;;;11.88;3.13;;;;;;;;;;4971306;28;20050;-65
2023/12/21 07:26:53;;;;;;;10.65;2.90;;;;;;;;;;4967456;28;20042;-66
2023/12/21 07:29:20;;;;;;;10.93;2.60;;;;;;;;;;4980301;28;20046;-66
2023/12/21 07:31:46;;;;;;;8.45;3.00;;;;;;;;;;4958792;28;20385;-66
2023/12/21 07:34:13;;;;;;;9.70;2.92;;;;;;;;;;4961870;28;20054;-67
2023/12/21 07:36:39;;;;;;;20.70;3.40;;;;;;;;;;4970057;28;20097;-67
2023/12/21 07:39:05;;;;;;;16.08;3.53;;;;;;;;;;4968347;28;20758;-66
2023/12/21 07:41:33;;;;;;;12.98;3.65;;;;;;;;;;4961750;28;20647;-69
2023/12/21 07:43:59;;;;;;;15.68;4.05;;;;;;;;;;4968997;28;20050;-69
2023/12/21 07:46:25;;;;;;;14.23;3.08;;;;;;;;;;4981992;28;20292;-69
2023/12/21 07:48:52;;;;;;;15.25;3.40;;;;;;;;;;4968207;28;20077;-69
2023/12/21 07:51:18;;;;;;;16.10;3.05;;;;;;;;;;4975192;28;20051;-68
2023/12/21 07:53:45;;;;;;;12.73;2.85;;;;;;;;;;4973612;28;20193;-70
2023/12/21 07:56:11;;;;;;;14.15;3.65;;;;;;;;;;4979724;28;20055;-70
2023/12/21 07:58:37;;;;;;;12.70;3.00;;;;;;;;;;4982831;28;20476;-68
2023/12/21 08:01:05;;;;;;;8.02;2.97;;;;;;;;;;4975186;28;20697;-68
2023/12/21 08:03:31;;;;;;;12.88;3.22;;;;;;;;;;4979571;28;20108;-68
2023/12/21 08:05:58;;;;;;;15.25;2.60;;;;;;;;;;4974319;28;20130;-68
2023/12/21 08:08:24;;;;;;;8.65;2.80;;;;;;;;;;4980074;28;20055;-69
2023/12/21 08:10:51;;;;;;;13.70;3.70;;;;;;;;;;4970945;28;20561;-69
2023/12/21 08:13:17;;;;;;;12.93;2.92;;;;;;;;;;4971393;28;20051;-68
2023/12/21 08:15:44;;;;;;;10.88;2.55;;;;;;;;;;4973833;28;20097;-69
2023/12/21 08:18:13;;;;;;;11.57;2.47;;;;;;;;;;4969332;28;20711;-69
2023/12/21 08:20:42;;;;;;;10.77;2.10;;;;;;;;;;4966366;28;20047;-69
2023/12/21 08:23:09;;;;;;;9.60;2.70;;;;;;;;;;4974002;28;20093;-69
2023/12/21 08:25:35;;;;;;;7.43;2.30;;;;;;;;;;4976698;28;20560;-69
2023/12/21 08:28:02;;;;;;;5.55;1.95;;;;;;;;;;4960257;28;20046;-69
2023/12/21 08:30:29;;;;;;;10.90;2.70;;;;;;;;;;4970059;28;20155;-69
2023/12/21 08:32:56;;;;;;;10.98;1.95;;;;;;;;;;4971051;28;20050;-69
2023/12/21 08:35:22;;;;;;;9.45;2.05;;;;;;;;;;4962900;28;20046;-69
2023/12/21 08:37:49;;;;;;;7.72;1.63;;;;;;;;;;4978448;28;20510;-68
2023/12/21 08:40:16;;;;;;;6.70;1.80;;;;;;;;;;4959918;28;20498;-68
2023/12/21 08:42:42;;;;;;;9.20;1.75;;;;;;;;;;4978302;28;20042;-69
2023/12/21 08:45:09;;;;;;;5.93;1.70;;;;;;;;;;4971864;28;20038;-68
2023/12/21 08:47:40;;;;;;;4.00;1.60;;;;;;;;;;4973125;28;20042;-68
2023/12/21 08:50:08;;;;;;;6.55;1.73;;;;;;;;;;4982772;28;20594;-69
2023/12/21 08:52:36;;;;;;;7.88;1.95;;;;;;;;;;4966042;28;20046;-68
2023/12/21 08:55:03;;;;;;;6.18;1.55;;;;;;;;;;4983300;28;20054;-68
2023/12/21 08:57:32;;;;;;;7.10;1.92;;;;;;;;;;4974492;28;20055;-68
2023/12/21 08:59:58;;;;;;;8.45;1.90;;;;;;;;;;4979871;28;20054;-68
2023/12/21 09:02:25;;;;;;;7.38;1.40;;;;;;;;;;4971186;28;20039;-68
2023/12/21 09:04:52;;;;;;;8.13;1.75;;;;;;;;;;4968297;28;20122;-68
2023/12/21 09:07:18;;;;;;;6.22;1.55;;;;;;;;;;4976049;28;20135;-68
2023/12/21 09:09:45;;;;;;;6.97;2.03;;;;;;;;;;4977869;28;20140;-68
2023/12/21 09:12:11;;;;;;;10.80;2.58;;;;;;;;;;4964848;28;20131;-68
2023/12/21 09:14:37;;;;;;;5.97;1.70;;;;;;;;;;4966007;28;20134;-68
2023/12/21 09:17:04;;;;;;;11.00;1.95;;;;;;;;;;4971777;28;20090;-68
2023/12/21 09:19:32;;;;;;;8.65;2.08;;;;;;;;;;4968591;28;20060;-69
2023/12/21 09:21:59;;;;;;;9.75;2.53;;;;;;;;;;4969794;28;20050;-69
2023/12/21 09:24:25;;;;;;;9.88;2.03;;;;;;;;;;4969925;28;20057;-68
2023/12/21 09:26:52;;;;;;;8.43;2.25;;;;;;;;;;4957555;28;20061;-68
2023/12/21 09:29:18;;;;;;;9.35;1.92;;;;;;;;;;4972048;28;20054;-69
2023/12/21 09:31:45;;;;;;;10.63;1.70;;;;;;;;;;4974141;28;20046;-70
2023/12/21 09:34:11;;;;;;;13.38;2.05;;;;;;;;;;4961860;28;20047;-68
2023/12/21 09:36:39;;;;;;;10.15;2.17;;;;;;;;;;4966009;28;20097;-69
2023/12/21 09:39:06;;;;;;;12.80;1.70;;;;;;;;;;4959440;28;20045;-68
2023/12/21 09:41:32;;;;;;;7.53;1.90;;;;;;;;;;4971092;28;20458;-68
2023/12/21 09:44:01;;;;;;;9.13;1.80;;;;;;;;;;4968223;28;20051;-68
2023/12/21 09:46:33;;;;;;;11.18;1.50;;;;;;;;;;4964844;28;20055;-68
2023/12/21 09:49:00;;;;;;;8.13;2.00;;;;;;;;;;4970796;28;20047;-68
2023/12/21 09:51:27;;;;;;;9.77;1.77;;;;;;;;;;4963045;28;20055;-69
2023/12/21 09:53:54;;;;;;;9.45;2.00;;;;;;;;;;4973454;28;20059;-68
2023/12/21 09:56:21;;;;;;;9.82;2.50;;;;;;;;;;4963996;28;20050;-68
2023/12/21 09:58:48;;;;;;;11.73;2.40;;;;;;;;;;4973198;28;20054;-68
2023/12/21 10:01:14;;;;;;;11.32;2.13;;;;;;;;;;4975852;28;20177;-69
2023/12/21 10:03:41;;;;;;;10.27;2.35;;;;;;;;;;4959772;28;20074;-69
2023/12/21 10:06:08;;;;;;;10.25;2.40;;;;;;;;;;4968594;28;20052;-69
2023/12/21 10:08:34;;;;;;;14.38;2.25;;;;;;;;;;4965160;28;20046;-69
2023/12/21 10:11:06;;;;;;;10.27;2.20;;;;;;;;;;4970116;28;20054;-69
2023/12/21 10:13:33;;;;;;;6.90;1.55;;;;;;;;;;4970348;28;20098;-68
2023/12/21 10:16:00;;;;;;;12.23;1.80;;;;;;;;;;4972500;28;20411;-68
2023/12/21 10:18:27;;;;;;;9.35;1.50;;;;;;;;;;4970802;28;20512;-70
2023/12/21 10:20:54;;;;;;;6.80;1.50;;;;;;;;;;4970014;28;20145;-68
2023/12/21 10:23:20;;;;;;;13.73;1.90;;;;;;;;;;4964398;28;20145;-68
2023/12/21 10:25:47;;;;;;;11.55;2.15;;;;;;;;;;4967968;28;20054;-69
2023/12/21 10:28:14;;;;;;;7.72;1.55;;;;;;;;;;4970288;28;20584;-69
2023/12/21 10:30:41;;;;;;;5.35;1.10;;;;;;;;;;4971216;28;20042;-68
2023/12/21 10:33:12;;;;;;;5.75;1.17;;;;;;;;;;4961719;28;20086;-68
2023/12/21 10:35:38;;;;;;;7.72;1.33;;;;;;;;;;4969375;28;20149;-68
2023/12/21 10:38:05;;;;;;;6.95;1.10;;;;;;;;;;4956082;28;20438;-68
2023/12/21 10:40:32;;;;;;;5.95;1.25;;;;;;;;;;4975434;28;20458;-68
2023/12/21 10:42:58;;;;;;;8.63;1.90;;;;;;;;;;4966606;28;20771;-68
2023/12/21 10:45:25;;;;;;;5.72;1.20;;;;;;;;;;4975533;28;20165;-68
2023/12/21 10:48:05;;;;;;;5.28;1.13;;;;;;;;;;4978496;28;20104;-67
2023/12/21 10:50:33;;;;;;;8.07;1.30;;;;;;;;;;4972217;28;20138;-68
2023/12/21 10:53:00;;;;;;;7.47;1.30;;;;;;;;;;4977905;28;20581;-69
2023/12/21 10:55:27;;;;;;;3.40;0.90;;;;;;;;;;4959868;28;20117;-68
2023/12/21 10:57:58;;;;;;;9.38;1.33;;;;;;;;;;4980151;28;20050;-70
2023/12/21 11:00:24;;;;;;;6.45;1.20;;;;;;;;;;4974495;28;20145;-69
2023/12/21 11:02:51;;;;;;;5.82;1.40;;;;;;;;;;4963632;28;20047;-68
2023/12/21 11:05:20;;;;;;;9.52;1.27;;;;;;;;;;4974858;28;20493;-69
2023/12/21 11:07:50;;;;;;;2.58;1.10;;;;;;;;;;4962783;28;20115;-69
2023/12/21 11:10:17;;;;;;;12.73;1.85;;;;;;;;;;4969216;28;20039;-68
2023/12/21 11:12:44;;;;;;;5.85;1.27;;;;;;;;;;4968622;28;20050;-68
2023/12/21 11:15:11;;;;;;;7.40;1.40;;;;;;;;;;4982516;28;20078;-69
2023/12/21 11:17:40;;;;;;;7.97;1.35;;;;;;;;;;4978261;28;20046;-68
2023/12/21 11:20:08;;;;;;;7.47;1.58;;;;;;;;;;4973203;28;20130;-68
2023/12/21 11:22:39;;;;;;;5.68;1.30;;;;;;;;;;4969194;28;20053;-68
2023/12/21 11:25:12;;;;;;;10.45;1.63;;;;;;;;;;4961319;28;20138;-69
2023/12/21 11:27:42;;;;;;;4.03;1.23;;;;;;;;;;4967046;28;20076;-68
2023/12/21 11:30:10;;;;;;;6.68;1.63;;;;;;;;;;4962472;28;20078;-68
2023/12/21 11:32:38;;;;;;;8.43;2.00;;;;;;;;;;4976088;28;20100;-70
2023/12/21 11:35:15;;;;;;;5.68;1.55;;;;;;;;;;4962598;28;20065;-68
2023/12/21 11:37:42;;;;;;;6.88;1.45;;;;;;;;;;4969230;28;20479;-69
2023/12/21 11:40:11;;;;;;;8.35;1.58;;;;;;;;;;4978796;28;20137;-67
2023/12/21 11:42:37;;;;;;;;;;;;;;;;;;4976655;28;20038;-68
2023/12/21 11:45:07;;;;;;;5.70;1.10;;;;;;;;;;4978649;28;20426;-68
2023/12/21 11:47:34;;;;;;;9.75;1.40;;;;;;;;;;4958127;28;20050;-68
2023/12/21 11:50:08;;;;;;;7.03;1.50;;;;;;;;;;4981164;28;20049;-68
2023/12/21 11:52:35;;;;;;;4.38;1.00;;;;;;;;;;4979902;28;20074;-68
2023/12/21 11:55:01;;;;;;;4.60;1.02;;;;;;;;;;4982573;28;20058;-68
2023/12/21 11:57:29;;;;;;;4.82;1.45;;;;;;;;;;4979541;28;20400;-68
2023/12/21 12:00:09;;;;;;;9.20;1.50;;;;;;;;;;4979815;28;20132;-69
2023/12/21 12:02:35;;;;;;;5.35;1.25;;;;;;;;;;4966154;28;20068;-68
2023/12/21 12:05:02;;;;;;;9.15;1.58;;;;;;;;;;4976703;28;20074;-68
2023/12/21 12:07:33;;;;;;;7.28;1.45;;;;;;;;;;4967899;28;20050;-65
2023/12/21 12:10:00;;;;;;;5.05;2.00;;;;;;;;;;4979188;28;20128;-65
2023/12/21 12:12:26;;;;;;;5.63;2.13;;;;;;;;;;4970033;28;20042;-64
2023/12/21 12:14:53;;;;;;;7.88;1.70;;;;;;;;;;4975098;28;20058;-65
2023/12/21 12:17:19;;;;;;;14.57;2.17;;;;;;;;;;4957186;28;20762;-65
2023/12/21 12:19:46;;;;;;;7.93;1.42;;;;;;;;;;4979021;28;20081;-64
2023/12/21 12:22:14;;;;;;;5.90;1.40;;;;;;;;;;4967440;28;20565;-66
2023/12/21 12:24:43;;;;;;;9.48;1.55;;;;;;;;;;4981076;28;20055;-65
2023/12/21 12:27:09;;;;;;;;;;;;;;;;;;4966725;28;20051;-66
2023/12/21 12:29:36;;;;;;;8.35;1.40;;;;;;;;;;4960673;28;19992;-65
2023/12/21 12:32:03;;;;;;;7.43;1.48;;;;;;;;;;4971077;28;20043;-66
2023/12/21 12:34:29;;;;;;;7.03;1.40;;;;;;;;;;4976559;28;20046;-66
2023/12/21 12:36:55;;;;;;;5.82;1.35;;;;;;;;;;4974714;28;20129;-64
2023/12/21 12:39:22;;;;;;;5.13;1.00;;;;;;;;;;4963143;28;20074;-65
2023/12/21 12:41:55;;;;;;;5.55;1.05;;;;;;;;;;4980636;28;20054;-65
2023/12/21 12:44:22;;;;;;;5.07;1.15;;;;;;;;;;4980747;28;20121;-65
2023/12/21 12:46:51;;;;;;;5.22;0.98;;;;;;;;;;4962546;28;20105;-64
2023/12/21 12:49:22;;;;;;;4.85;1.30;;;;;;;;;;4977845;28;20050;-65
2023/12/21 12:51:51;;;;;;;4.93;1.10;;;;;;;;;;4975642;28;20054;-65
2023/12/21 12:54:17;;;;;;;6.38;1.23;;;;;;;;;;4984283;28;20070;-64
2023/12/21 12:56:47;;;;;;;6.70;1.20;;;;;;;;;;4982754;28;20049;-68
2023/12/21 12:59:18;;;;;;;5.72;1.15;;;;;;;;;;4979606;28;20042;-68
2023/12/21 13:01:44;;;;;;;6.13;1.25;;;;;;;;;;4969743;28;20061;-66
2023/12/21 13:04:12;;;;;;;6.55;1.00;;;;;;;;;;4969313;28;20073;-66
2023/12/21 13:06:38;;;;;;;4.13;1.00;;;;;;;;;;4973632;28;20888;-65
2023/12/21 13:09:06;;;;;;;11.15;3.00;;;;;;;;;;4969219;28;20058;-66
2023/12/21 13:11:33;;;;;;;6.97;1.83;;;;;;;;;;4987430;28;20070;-66
2023/12/21 13:14:00;;;;;;;6.50;1.23;;;;;;;;;;4969999;28;20056;-65
2023/12/21 13:16:27;;;;;;;7.72;1.40;;;;;;;;;;4966594;28;20082;-64
2023/12/21 13:18:53;;;;;;;9.18;1.83;;;;;;;;;;4975052;28;20058;-66
2023/12/21 13:21:20;;;;;;;3.42;0.95;;;;;;;;;;4964835;28;20356;-67
2023/12/21 13:23:46;;;;;;;5.65;1.00;;;;;;;;;;4970942;28;20141;-66
2023/12/21 13:26:13;;;;;;;8.52;1.40;;;;;;;;;;4956755;28;20047;-67
2023/12/21 13:28:41;;;;;;;4.40;1.35;;;;;;;;;;4969957;28;20518;-64
2023/12/21 13:31:08;;;;;;;9.32;1.10;;;;;;;;;;4977627;28;20050;-65
2023/12/21 13:33:34;;;;;;;9.93;2.30;;;;;;;;;;4972561;28;20145;-66
2023/12/21 13:36:04;;;;;;;3.33;0.85;;;;;;;;;;4966892;28;20062;-67
2023/12/21 13:38:30;;;;;;;6.18;1.15;;;;;;;;;;4969265;28;20399;-66
2023/12/21 13:40:57;;;;;;;4.80;1.17;;;;;;;;;;4976736;28;20050;-66
2023/12/21 13:43:24;;;;;;;4.43;1.23;;;;;;;;;;4971623;28;20121;-65
2023/12/21 13:45:50;;;;;;;12.15;1.83;;;;;;;;;;4963353;28;20047;-66
2023/12/21 13:48:21;;;;;;;11.02;2.53;;;;;;;;;;4982148;28;20043;-65
2023/12/21 13:50:48;;;;;;;5.93;1.70;;;;;;;;;;4959638;28;20057;-67
2023/12/21 13:53:14;;;;;;;8.50;1.15;;;;;;;;;;4973313;28;20129;-67
2023/12/21 13:55:40;;;;;;;10.40;2.42;;;;;;;;;;4970044;28;20075;-68
2023/12/21 13:58:08;;;;;;;10.52;1.83;;;;;;;;;;4976491;28;20050;-66
2023/12/21 14:00:35;;;;;;;11.63;1.80;;;;;;;;;;4976923;28;20451;-67
2023/12/21 14:03:01;;;;;;;10.20;1.42;;;;;;;;;;4974470;28;20304;-66
2023/12/21 14:05:28;;;;;;;7.97;1.60;;;;;;;;;;4969777;28;20054;-66
2023/12/21 14:07:56;;;;;;;14.07;2.00;;;;;;;;;;4969362;28;20050;-69
2023/12/21 14:10:23;;;;;;;;;;;;;;;;;;4970998;28;20054;-67
2023/12/21 14:12:49;;;;;;;16.08;1.92;;;;;;;;;;4975807;28;19930;-67
2023/12/21 14:15:23;;;;;;;8.90;1.70;;;;;;;;;;4970179;28;20042;-66
2023/12/21 14:17:50;;;;;;;11.88;1.77;;;;;;;;;;4976880;28;20047;-67
2023/12/21 14:20:18;;;;;;;8.75;1.60;;;;;;;;;;4977108;28;20046;-66
2023/12/21 14:22:45;;;;;;;;;;;;;;;;;;4976880;28;20054;-67
2023/12/21 14:25:11;;;;;;;14.10;1.80;;;;;;;;;;4966481;28;19996;-66
2023/12/21 14:27:38;;;;;;;16.60;2.95;;;;;;;;;;4976940;28;20565;-66
2023/12/21 14:30:05;;;;;;;12.32;2.67;;;;;;;;;;4980124;28;20058;-66
2023/12/21 14:32:31;;;;;;;15.38;2.00;;;;;;;;;;4973905;28;20054;-67
2023/12/21 14:34:57;;;;;;;11.50;1.95;;;;;;;;;;4981109;28;20054;-65